Current Weather

Shahid Asyaee

Shahid Asyaee, Iran (OIAI)

Report from: Tuesday, August 16, 2022 5:00 AM UTC
Current time: Tuesday, August 16, 2022 7:15 AM UTC

Nearby weather
Weather history
Weather forecast

Temperature42.0°C (107.6°F)
Heat index39.2°C (102.6°F)
Dew point5.0°C (41.0°F)
Winds 6 kts (3.1 m/s, 6.9 mph) East-Southeast (120°)
Clouds Sky clear
Altimeter29.56 in.Hg (1001 mB)
Relative humidity11 %
Density altitude3,561 ft. (1,085 m)
Remarks Ceiling and visibility OK
Flight conditions Visual Meteorological Conditions
Raw dataOIAI 160500Z 12006KT CAVOK 42/05 Q1001
An error has occurred. This application may no longer respond until reloaded. Reload 🗙